Terminal Aerodrome Forecast
Issued by NWS Wilmington, NC

Home | Current Version | Previous Version | Text Only | Print | Product List | Glossary On
Versions: 1 2 3 4 5 6 7 8 9 10 11 12 13 14 15 16 17
000
FTUS42 KILM 232325
TAFILM
TAF
KILM 232325Z 2400/2424 07009KT 6SM -SHRA OVC009
     FM240300 08008KT P6SM OVC008
      TEMPO 2403/2407 2SM SHRA OVC004
     FM240900 10008KT 3SM SHRA BR OVC015
     FM241800 12015KT 3SM SHRA OVC020=

USA.gov is the U.S. government's official web portal to all federal, state and local government web resources and services.